createdAt,value
2023-05-11T00:01:07.476Z,15.10
2023-05-11T00:03:38.667Z,15.10
2023-05-11T00:06:09.439Z,15.10
2023-05-11T00:08:42.601Z,15.00
2023-05-11T00:11:13.134Z,15.00
2023-05-11T00:13:43.678Z,15.10
2023-05-11T00:16:15.245Z,15.00
2023-05-11T00:18:46.013Z,15.00
2023-05-11T00:21:16.575Z,15.00
2023-05-11T00:23:49.583Z,15.00
2023-05-11T00:26:20.074Z,15.00
2023-05-11T00:28:51.782Z,15.00
2023-05-11T00:31:22.376Z,15.00
2023-05-11T00:33:54.782Z,14.90
2023-05-11T00:36:25.316Z,14.90
2023-05-11T00:38:58.489Z,15.00
2023-05-11T00:41:29.072Z,15.00
2023-05-11T00:43:59.488Z,15.00
2023-05-11T00:46:30.771Z,14.90
2023-05-11T00:49:01.671Z,14.90
2023-05-11T00:51:32.292Z,15.00
2023-05-11T00:54:05.628Z,14.90
2023-05-11T00:56:36.216Z,14.80
2023-05-11T00:59:06.987Z,14.90
2023-05-11T01:01:37.425Z,14.90
2023-05-11T01:04:08.331Z,14.90
2023-05-11T01:06:46.911Z,14.80
2023-05-11T01:09:30.956Z,14.80
2023-05-11T01:12:14.322Z,14.80
2023-05-11T01:14:49.196Z,14.80
2023-05-11T01:17:27.628Z,14.90
2023-05-11T01:20:04.320Z,14.80
2023-05-11T01:22:58.109Z,14.90
2023-05-11T01:25:56.478Z,14.80
2023-05-11T01:28:48.944Z,14.80
2023-05-11T01:31:23.538Z,14.80
2023-05-11T01:33:59.831Z,14.80
2023-05-11T01:36:36.702Z,14.80
2023-05-11T01:39:11.810Z,14.90
2023-05-11T01:41:45.112Z,14.80
2023-05-11T01:44:17.080Z,14.80
2023-05-11T01:46:51.773Z,14.80
2023-05-11T01:49:24.177Z,14.80
2023-05-11T01:51:55.544Z,14.80
2023-05-11T01:54:28.329Z,14.80
2023-05-11T01:57:00.421Z,14.80
2023-05-11T01:59:32.059Z,14.80
2023-05-11T02:02:06.849Z,14.80
2023-05-11T02:04:40.396Z,14.80
2023-05-11T02:07:11.352Z,14.80
2023-05-11T02:09:42.811Z,14.80
2023-05-11T02:12:15.250Z,14.70
2023-05-11T02:14:46.479Z,14.80
2023-05-11T02:17:21.066Z,14.80
2023-05-11T02:19:53.896Z,14.80
2023-05-11T02:22:26.026Z,14.80
2023-05-11T02:24:56.696Z,14.80
2023-05-11T02:27:28.374Z,14.70
2023-05-11T02:30:00.991Z,14.70
2023-05-11T02:32:36.294Z,14.70
2023-05-11T02:35:13.110Z,14.70
2023-05-11T02:37:48.054Z,14.70
2023-05-11T02:40:22.188Z,14.70
2023-05-11T02:42:56.566Z,14.70
2023-05-11T02:45:31.372Z,14.70
2023-05-11T02:48:09.040Z,14.70
2023-05-11T02:50:42.373Z,14.60
2023-05-11T02:53:19.311Z,14.70
2023-05-11T02:55:50.431Z,14.70
2023-05-11T02:58:21.882Z,14.70
2023-05-11T03:01:00.276Z,14.60
2023-05-11T03:03:34.374Z,14.60
2023-05-11T03:06:05.089Z,14.60
2023-05-11T03:08:35.652Z,14.60
2023-05-11T03:11:07.991Z,14.60
2023-05-11T03:13:38.659Z,14.60
2023-05-11T03:16:10.792Z,14.60
2023-05-11T03:18:44.410Z,14.60
2023-05-11T03:21:17.928Z,14.60
2023-05-11T03:23:49.630Z,14.60
2023-05-11T03:26:22.380Z,14.60
2023-05-11T03:28:55.590Z,14.50
2023-05-11T03:31:26.202Z,14.50
2023-05-11T03:34:00.176Z,14.60
2023-05-11T03:36:33.414Z,14.50
2023-05-11T03:39:06.201Z,14.40
2023-05-11T03:41:38.316Z,14.50
2023-05-11T03:44:09.718Z,14.50
2023-05-11T03:46:43.028Z,14.40
2023-05-11T03:49:18.538Z,14.50
2023-05-11T03:51:49.413Z,14.40
2023-05-11T03:54:19.953Z,14.40
2023-05-11T03:56:50.446Z,14.40
2023-05-11T03:59:23.983Z,14.40
2023-05-11T04:01:55.615Z,14.30
2023-05-11T04:04:34.423Z,14.30
2023-05-11T04:07:04.880Z,14.30
2023-05-11T04:09:35.450Z,14.30
2023-05-11T04:12:06.048Z,14.30
2023-05-11T04:14:36.487Z,14.20
2023-05-11T04:17:06.909Z,14.20
2023-05-11T04:19:39.894Z,14.10
2023-05-11T04:22:12.405Z,14.10
2023-05-11T04:24:42.939Z,14.00
2023-05-11T04:27:13.342Z,14.00
2023-05-11T04:29:43.840Z,14.00
2023-05-11T04:32:14.302Z,14.00
2023-05-11T04:34:48.660Z,14.00
2023-05-11T04:37:23.163Z,14.00
2023-05-11T04:39:54.246Z,14.00
2023-05-11T04:42:24.825Z,14.00
2023-05-11T04:44:57.973Z,13.90
2023-05-11T04:47:29.397Z,13.90
2023-05-11T04:50:03.936Z,13.90
2023-05-11T04:52:38.136Z,13.90
2023-05-11T04:55:09.679Z,13.90
2023-05-11T04:57:40.453Z,13.90
2023-05-11T05:00:13.029Z,13.80
2023-05-11T05:02:43.597Z,13.90
2023-05-11T05:05:17.984Z,13.80
2023-05-11T05:07:48.489Z,13.80
2023-05-11T05:10:19.378Z,13.80
2023-05-11T05:12:50.379Z,13.80
2023-05-11T05:15:21.597Z,13.90
2023-05-11T05:17:52.175Z,13.80
2023-05-11T05:20:25.571Z,13.80
2023-05-11T05:22:56.037Z,13.90
2023-05-11T05:25:27.197Z,13.90
2023-05-11T05:27:58.690Z,13.90
2023-05-11T05:30:30.073Z,13.90
2023-05-11T05:33:00.721Z,13.90
2023-05-11T05:35:33.863Z,13.90
2023-05-11T05:38:04.711Z,13.90
2023-05-11T05:40:37.874Z,13.90
2023-05-11T05:43:08.675Z,13.90
2023-05-11T05:45:39.310Z,13.90
2023-05-11T05:48:10.417Z,13.90
2023-05-11T05:50:44.803Z,13.90
2023-05-11T05:53:15.684Z,13.90
2023-05-11T05:55:46.223Z,14.00
2023-05-11T05:58:17.427Z,14.00
2023-05-11T06:00:48.002Z,14.00
2023-05-11T06:03:18.792Z,14.00
2023-05-11T06:05:51.927Z,13.90
2023-05-11T06:08:22.460Z,14.00
2023-05-11T06:10:53.706Z,13.90
2023-05-11T06:13:24.191Z,14.00
2023-05-11T06:15:54.735Z,13.90
2023-05-11T06:18:31.594Z,13.90
2023-05-11T06:21:05.404Z,14.00
2023-05-11T06:23:36.814Z,14.00
2023-05-11T06:26:07.474Z,13.90
2023-05-11T06:28:38.567Z,14.00
2023-05-11T06:31:15.898Z,14.00
2023-05-11T06:33:47.299Z,14.10
2023-05-11T06:36:27.966Z,14.10
2023-05-11T06:38:58.492Z,14.10
2023-05-11T06:41:29.005Z,14.20
2023-05-11T06:44:00.950Z,14.20
2023-05-11T06:46:39.133Z,14.20
2023-05-11T06:49:10.697Z,14.30
2023-05-11T06:51:43.806Z,14.30
2023-05-11T06:54:14.455Z,14.30
2023-05-11T06:56:45.482Z,14.30
2023-05-11T06:59:16.026Z,14.40
2023-05-11T07:01:46.789Z,14.40
2023-05-11T07:04:17.324Z,14.40
2023-05-11T07:06:50.474Z,14.40
2023-05-11T07:09:21.313Z,14.40
2023-05-11T07:11:52.453Z,14.50
2023-05-11T07:14:22.847Z,14.50
2023-05-11T07:16:56.298Z,14.50
2023-05-11T07:19:28.891Z,14.60
2023-05-11T07:22:02.228Z,14.60
2023-05-11T07:24:34.716Z,14.50
2023-05-11T07:27:05.241Z,14.50
2023-05-11T07:29:35.777Z,14.50
2023-05-11T07:32:07.591Z,14.60
2023-05-11T07:34:38.201Z,14.50
2023-05-11T07:37:12.378Z,14.60
2023-05-11T07:39:42.867Z,14.50
2023-05-11T07:42:16.478Z,14.50
2023-05-11T07:44:47.009Z,14.50
2023-05-11T07:47:19.209Z,14.50
2023-05-11T07:49:52.793Z,14.60
2023-05-11T07:52:25.950Z,14.60
2023-05-11T07:54:56.732Z,14.70
2023-05-11T07:57:27.554Z,14.60
2023-05-11T07:59:58.100Z,14.60
2023-05-11T08:02:28.845Z,14.60
2023-05-11T08:04:59.461Z,14.80
2023-05-11T08:07:32.621Z,14.80
2023-05-11T08:10:03.079Z,14.80
2023-05-11T08:12:33.783Z,14.80
2023-05-11T08:15:04.365Z,14.90
2023-05-11T08:17:35.104Z,14.90
2023-05-11T08:20:06.974Z,14.90
2023-05-11T08:22:40.068Z,15.00
2023-05-11T08:25:12.003Z,15.00
2023-05-11T08:27:42.562Z,15.00
2023-05-11T08:30:14.290Z,15.10
2023-05-11T08:35:18.499Z,15.10
2023-05-11T08:37:51.805Z,15.10
2023-05-11T08:40:23.506Z,15.20
2023-05-11T08:42:59.408Z,15.40
2023-05-11T08:45:30.413Z,15.40
2023-05-11T08:48:01.049Z,15.40
2023-05-11T08:50:31.612Z,15.40
2023-05-11T08:53:04.830Z,15.40
2023-05-11T08:55:38.965Z,15.60
2023-05-11T08:58:09.933Z,15.70
2023-05-11T09:00:41.132Z,15.70
2023-05-11T09:03:13.113Z,15.80
2023-05-11T09:05:44.537Z,15.80
2023-05-11T09:08:20.614Z,15.80
2023-05-11T09:10:52.924Z,15.80
2023-05-11T09:13:24.817Z,15.90
2023-05-11T09:15:55.533Z,16.00
2023-05-11T09:18:26.662Z,16.10
2023-05-11T09:20:57.604Z,16.10
2023-05-11T09:23:30.864Z,16.00
2023-05-11T09:26:01.443Z,16.20
2023-05-11T09:28:36.106Z,16.20
2023-05-11T09:31:06.824Z,16.30
2023-05-11T09:33:37.526Z,16.20
2023-05-11T09:36:09.500Z,16.20
2023-05-11T09:38:42.717Z,16.10
2023-05-11T09:41:13.281Z,16.30
2023-05-11T09:43:43.827Z,16.40
2023-05-11T09:46:24.709Z,16.50
2023-05-11T09:49:03.143Z,16.50
2023-05-11T09:51:35.484Z,16.50
2023-05-11T09:54:21.745Z,16.60
2023-05-11T09:56:54.563Z,16.60
2023-05-11T09:59:41.697Z,16.80
2023-05-11T10:02:22.745Z,16.90
2023-05-11T10:04:53.874Z,16.70
2023-05-11T10:07:28.886Z,16.90
2023-05-11T10:10:03.626Z,16.80
2023-05-11T10:12:38.457Z,16.90
2023-05-11T10:15:11.337Z,17.20
2023-05-11T10:17:44.839Z,17.10
2023-05-11T10:20:17.354Z,17.20
2023-05-11T10:22:49.574Z,17.50
2023-05-11T10:25:24.694Z,17.20
2023-05-11T10:27:55.450Z,17.30
2023-05-11T10:30:26.608Z,17.40
2023-05-11T10:32:59.303Z,17.20
2023-05-11T10:35:30.645Z,17.20
2023-05-11T10:38:01.612Z,17.20
2023-05-11T10:40:39.572Z,17.20
2023-05-11T10:43:46.081Z,17.20
2023-05-11T10:46:33.020Z,17.20
2023-05-11T10:49:22.447Z,17.10
2023-05-11T10:52:18.268Z,17.00
2023-05-11T10:55:04.815Z,17.00
2023-05-11T10:58:05.994Z,17.10
2023-05-11T11:01:09.058Z,17.40
2023-05-11T11:03:39.803Z,17.70
2023-05-11T11:06:26.156Z,17.90
2023-05-11T11:09:04.824Z,18.10
2023-05-11T11:11:37.466Z,18.20
2023-05-11T11:14:11.513Z,18.00
2023-05-11T11:16:42.997Z,17.80
2023-05-11T11:19:49.469Z,17.70
2023-05-11T11:22:47.752Z,17.70
2023-05-11T11:25:39.783Z,17.60
2023-05-11T11:28:10.289Z,18.00
2023-05-11T11:30:43.422Z,18.20
2023-05-11T11:33:36.545Z,18.00
2023-05-11T11:36:08.416Z,18.00
2023-05-11T11:39:02.229Z,17.90
2023-05-11T11:41:33.507Z,17.80
2023-05-11T11:44:04.497Z,17.90
2023-05-11T11:46:37.763Z,18.00
2023-05-11T11:49:12.346Z,18.20
2023-05-11T11:51:43.766Z,18.60
2023-05-11T11:54:14.326Z,18.90
2023-05-11T11:56:49.025Z,18.70
2023-05-11T11:59:19.609Z,18.70
2023-05-11T12:01:56.563Z,18.90
2023-05-11T12:04:43.881Z,19.10
2023-05-11T12:07:15.681Z,19.20
2023-05-11T12:09:49.215Z,19.40
2023-05-11T12:12:22.145Z,19.40
2023-05-11T12:14:52.814Z,19.60
2023-05-11T12:17:34.984Z,19.50
2023-05-11T12:20:18.968Z,19.60
2023-05-11T12:22:49.986Z,19.30
2023-05-11T12:25:22.159Z,19.30
2023-05-11T12:27:55.617Z,19.40
2023-05-11T12:30:27.558Z,19.20
2023-05-11T12:33:04.530Z,19.10
2023-05-11T12:35:39.217Z,19.00
2023-05-11T12:38:13.787Z,18.90
2023-05-11T12:40:51.155Z,18.70
2023-05-11T12:43:22.525Z,18.70
2023-05-11T12:45:53.296Z,18.70
2023-05-11T12:48:26.663Z,18.80
2023-05-11T12:50:57.179Z,19.20
2023-05-11T12:53:27.704Z,19.40
2023-05-11T12:56:01.911Z,19.50
2023-05-11T12:58:40.121Z,19.70
2023-05-11T13:01:11.627Z,20.00
2023-05-11T13:03:49.956Z,20.10
2023-05-11T13:06:23.173Z,20.00
2023-05-11T13:08:54.220Z,19.80
2023-05-11T13:11:27.068Z,20.10
2023-05-11T13:13:58.760Z,20.20
2023-05-11T13:16:30.270Z,20.30
2023-05-11T13:19:04.522Z,20.50
2023-05-11T13:21:35.950Z,20.70
2023-05-11T13:24:06.523Z,20.80
2023-05-11T13:26:36.970Z,20.80
2023-05-11T13:29:11.166Z,20.40
2023-05-11T13:31:52.969Z,20.20
2023-05-11T13:34:26.259Z,20.10
2023-05-11T13:36:56.760Z,20.40
2023-05-11T13:39:27.317Z,20.40
2023-05-11T13:41:57.765Z,20.30
2023-05-11T13:44:28.385Z,20.30
2023-05-11T13:46:58.943Z,20.10
2023-05-11T13:49:32.140Z,20.00
2023-05-11T13:52:03.058Z,19.90
2023-05-11T13:54:34.427Z,20.00
2023-05-11T13:57:05.481Z,20.10
2023-05-11T13:59:36.138Z,20.10
2023-05-11T14:02:06.848Z,20.10
2023-05-11T14:04:40.784Z,20.20
2023-05-11T14:07:11.405Z,20.20
2023-05-11T14:09:44.088Z,20.30
2023-05-11T14:12:14.502Z,20.20
2023-05-11T14:14:45.342Z,20.00
2023-05-11T14:17:16.562Z,19.90
2023-05-11T14:19:50.129Z,19.80
2023-05-11T14:22:20.830Z,19.70
2023-05-11T14:24:51.236Z,19.70
2023-05-11T14:27:22.433Z,19.60
2023-05-11T14:29:53.137Z,19.50
2023-05-11T14:32:23.945Z,19.50
2023-05-11T14:34:57.092Z,19.50
2023-05-11T14:37:27.709Z,19.40
2023-05-11T14:39:58.279Z,19.40
2023-05-11T14:42:29.832Z,19.20
2023-05-11T14:45:00.723Z,19.10
2023-05-11T14:47:31.337Z,19.00
2023-05-11T14:50:04.858Z,18.90
2023-05-11T14:52:35.548Z,19.00
2023-05-11T14:55:06.043Z,18.90
2023-05-11T14:57:36.999Z,18.70
2023-05-11T15:00:09.042Z,18.50
2023-05-11T15:02:39.546Z,18.10
2023-05-11T15:05:13.298Z,17.90
2023-05-11T15:07:44.404Z,17.80
2023-05-11T15:10:15.239Z,17.60
2023-05-11T15:12:45.820Z,16.70
2023-05-11T15:15:16.578Z,16.60
2023-05-11T15:17:47.254Z,16.50
2023-05-11T15:20:21.222Z,16.70
2023-05-11T15:22:51.817Z,16.90
2023-05-11T15:25:23.017Z,16.80
2023-05-11T15:27:53.700Z,16.90
2023-05-11T15:30:24.218Z,16.80
2023-05-11T15:32:55.988Z,16.80
2023-05-11T15:35:29.223Z,16.70
2023-05-11T15:37:59.666Z,16.80
2023-05-11T15:40:30.192Z,16.80
2023-05-11T15:43:00.806Z,16.90
2023-05-11T15:45:31.482Z,16.90
2023-05-11T15:48:01.989Z,16.90
2023-05-11T15:50:35.084Z,16.80
2023-05-11T15:53:05.581Z,16.80
2023-05-11T15:55:36.669Z,16.80
2023-05-11T15:58:10.775Z,16.70
2023-05-11T16:00:41.628Z,16.70
2023-05-11T16:03:12.252Z,16.70
2023-05-11T16:05:45.796Z,16.70
2023-05-11T16:08:16.569Z,16.60
2023-05-11T16:10:47.113Z,16.70
2023-05-11T16:13:17.515Z,16.70
2023-05-11T16:15:48.081Z,16.70
2023-05-11T16:18:20.080Z,16.70
2023-05-11T16:20:53.358Z,16.70
2023-05-11T16:23:25.642Z,16.70
2023-05-11T16:25:56.723Z,16.60
2023-05-11T16:28:27.160Z,16.60
2023-05-11T16:30:59.276Z,16.60
2023-05-11T16:33:30.158Z,16.60
2023-05-11T16:36:03.333Z,16.60
2023-05-11T16:38:33.828Z,16.40
2023-05-11T16:41:04.653Z,16.40
2023-05-11T16:43:35.758Z,16.30
2023-05-11T16:46:06.293Z,16.30
2023-05-11T16:48:36.853Z,16.40
2023-05-11T16:51:10.114Z,16.30
2023-05-11T16:53:40.665Z,16.30
2023-05-11T16:56:11.678Z,16.20
2023-05-11T16:58:43.655Z,16.00
2023-05-11T17:01:14.387Z,16.00
2023-05-11T17:03:45.005Z,16.00
2023-05-11T17:06:20.974Z,16.00
2023-05-11T17:08:51.604Z,16.00
2023-05-11T17:11:22.068Z,16.00
2023-05-11T17:13:52.785Z,16.10
2023-05-11T17:16:23.487Z,16.10
2023-05-11T17:18:54.419Z,16.10
2023-05-11T17:21:28.970Z,16.20
2023-05-11T17:23:59.373Z,16.20
2023-05-11T17:26:43.366Z,16.20
2023-05-11T17:29:18.178Z,16.10
2023-05-11T17:31:51.902Z,16.10
2023-05-11T17:34:25.903Z,16.20
2023-05-11T17:37:01.356Z,16.10
2023-05-11T17:39:32.307Z,16.10
2023-05-11T17:42:03.812Z,16.10
2023-05-11T17:44:34.310Z,16.10
2023-05-11T17:47:05.702Z,16.20
2023-05-11T17:49:36.360Z,16.10
2023-05-11T17:52:10.239Z,16.20
2023-05-11T17:54:40.743Z,16.10
2023-05-11T17:57:11.286Z,16.20
2023-05-11T17:59:41.839Z,16.10
2023-05-11T18:02:13.087Z,16.20
2023-05-11T18:04:43.801Z,16.10
2023-05-11T18:07:16.960Z,16.00
2023-05-11T18:09:47.436Z,16.10
2023-05-11T18:12:17.960Z,16.10
2023-05-11T18:14:48.425Z,16.10
2023-05-11T18:17:18.912Z,16.00
2023-05-11T18:19:49.415Z,16.00
2023-05-11T18:22:22.767Z,16.00
2023-05-11T18:24:53.368Z,16.00
2023-05-11T18:27:23.806Z,15.90
2023-05-11T18:29:54.453Z,16.00
2023-05-11T18:32:24.912Z,15.90
2023-05-11T18:34:55.314Z,15.90
2023-05-11T18:37:28.445Z,15.80
2023-05-11T18:39:58.911Z,15.80
2023-05-11T18:42:29.350Z,15.80
2023-05-11T18:45:00.809Z,15.90
2023-05-11T18:47:31.246Z,15.90
2023-05-11T18:50:01.749Z,15.90
2023-05-11T18:52:34.832Z,15.90
2023-05-11T18:55:05.397Z,15.90
2023-05-11T18:57:36.141Z,15.90
2023-05-11T19:00:07.048Z,15.90
2023-05-11T19:02:37.578Z,15.90
2023-05-11T19:05:09.089Z,15.90
2023-05-11T19:07:42.349Z,15.90
2023-05-11T19:10:13.436Z,15.90
2023-05-11T19:12:43.911Z,15.90
2023-05-11T19:15:14.755Z,15.90
2023-05-11T19:17:45.168Z,15.90
2023-05-11T19:20:15.842Z,15.80
2023-05-11T19:22:48.877Z,15.90
2023-05-11T19:25:19.436Z,15.90
2023-05-11T19:27:49.835Z,15.90
2023-05-11T19:30:20.392Z,15.80
2023-05-11T19:32:51.096Z,15.90
2023-05-11T19:35:22.769Z,15.80
2023-05-11T19:37:56.124Z,15.80
2023-05-11T19:40:45.545Z,15.80
2023-05-11T19:43:17.146Z,15.90
2023-05-11T19:45:48.254Z,15.80
2023-05-11T19:48:19.417Z,15.80
2023-05-11T19:50:49.851Z,15.80
2023-05-11T19:53:22.965Z,15.80
2023-05-11T19:55:53.431Z,15.80
2023-05-11T19:58:24.358Z,15.90
2023-05-11T20:00:55.140Z,15.90
2023-05-11T20:03:28.013Z,15.90
2023-05-11T20:05:59.299Z,15.80
2023-05-11T20:08:32.567Z,15.80
2023-05-11T20:11:03.026Z,15.80
2023-05-11T20:13:34.595Z,15.80
2023-05-11T20:16:05.098Z,15.80
2023-05-11T20:18:35.733Z,15.80
2023-05-11T20:21:06.521Z,15.80
2023-05-11T20:23:40.522Z,15.80
2023-05-11T20:26:11.142Z,15.80
2023-05-11T20:28:41.653Z,15.80
2023-05-11T20:31:12.236Z,15.80
2023-05-11T20:36:18.065Z,15.80
2023-05-11T20:38:51.256Z,15.80
2023-05-11T20:41:22.260Z,15.70
2023-05-11T20:43:52.769Z,15.70
2023-05-11T20:46:23.367Z,15.70
2023-05-11T20:48:54.006Z,15.70
2023-05-11T20:51:24.411Z,15.80
2023-05-11T20:53:57.454Z,15.80
2023-05-11T20:56:27.991Z,15.70
2023-05-11T20:58:58.692Z,15.70
2023-05-11T21:01:29.630Z,15.70
2023-05-11T21:04:00.869Z,15.70
2023-05-11T21:06:31.941Z,15.70
2023-05-11T21:09:05.053Z,15.80
2023-05-11T21:11:35.512Z,15.70
2023-05-11T21:14:06.073Z,15.80
2023-05-11T21:16:39.343Z,15.70
2023-05-11T21:19:10.714Z,15.70
2023-05-11T21:21:41.233Z,15.70
2023-05-11T21:24:14.373Z,15.70
2023-05-11T21:26:47.919Z,15.70
2023-05-11T21:29:18.710Z,15.70
2023-05-11T21:31:49.172Z,15.70
2023-05-11T21:34:20.012Z,15.70
2023-05-11T21:36:50.477Z,15.70
2023-05-11T21:39:25.001Z,15.70
2023-05-11T21:41:55.485Z,15.70
2023-05-11T21:44:26.011Z,15.70
2023-05-11T21:46:56.601Z,15.60
2023-05-11T21:49:27.547Z,15.70
2023-05-11T21:51:57.950Z,15.60
2023-05-11T21:54:31.044Z,15.60
2023-05-11T21:57:01.542Z,15.70
2023-05-11T21:59:31.961Z,15.60
2023-05-11T22:02:03.269Z,15.60
2023-05-11T22:04:33.812Z,15.60
2023-05-11T22:07:04.296Z,15.70
2023-05-11T22:09:37.408Z,15.60
2023-05-11T22:12:08.778Z,15.60
2023-05-11T22:14:40.056Z,15.70
2023-05-11T22:17:11.114Z,15.60
2023-05-11T22:19:41.614Z,15.70
2023-05-11T22:22:12.042Z,15.70
2023-05-11T22:24:45.150Z,15.70
2023-05-11T22:27:16.293Z,15.70
2023-05-11T22:29:46.821Z,15.60
2023-05-11T22:32:17.191Z,15.60
2023-05-11T22:34:47.746Z,15.60
2023-05-11T22:37:18.688Z,15.70
2023-05-11T22:39:51.768Z,15.60
2023-05-11T22:42:22.352Z,15.60
2023-05-11T22:44:53.079Z,15.60
2023-05-11T22:47:23.922Z,15.60
2023-05-11T22:49:54.503Z,15.70
2023-05-11T22:52:25.211Z,15.60
2023-05-11T22:55:00.831Z,15.60
2023-05-11T22:57:31.364Z,15.60
2023-05-11T23:00:01.857Z,15.60
2023-05-11T23:02:33.614Z,15.60
2023-05-11T23:05:04.145Z,15.60
2023-05-11T23:07:34.583Z,15.60
2023-05-11T23:10:08.156Z,15.60
2023-05-11T23:12:38.820Z,15.60
2023-05-11T23:15:10.760Z,15.60
2023-05-11T23:17:41.436Z,15.60
2023-05-11T23:20:13.104Z,15.60
2023-05-11T23:22:43.566Z,15.60
2023-05-11T23:25:16.768Z,15.60
2023-05-11T23:27:47.247Z,15.60
2023-05-11T23:30:18.345Z,15.60
2023-05-11T23:32:48.912Z,15.60
2023-05-11T23:35:19.593Z,15.60
2023-05-11T23:37:50.089Z,15.50
2023-05-11T23:40:23.340Z,15.40
2023-05-11T23:42:54.236Z,15.50
2023-05-11T23:45:24.877Z,15.50
2023-05-11T23:47:55.324Z,15.50
2023-05-11T23:50:26.057Z,15.50
2023-05-11T23:52:56.584Z,15.40
2023-05-11T23:55:29.649Z,15.50
2023-05-11T23:58:00.128Z,15.50
